sensor_id;sensor_type;location;lat;lon;timestamp;pressure;altitude;pressure_sealevel;temperature;humidity
80502;BME280;76286;51.190;6.808;2024-03-29T00:04:57;99277.72;;;9.52;60.18
80502;BME280;76286;51.190;6.808;2024-03-29T00:09:58;99255.38;;;9.53;60.36
80502;BME280;76286;51.190;6.808;2024-03-29T00:14:59;99244.41;;;9.50;60.00
80502;BME280;76286;51.190;6.808;2024-03-29T00:20:06;99232.38;;;9.47;60.33
80502;BME280;76286;51.190;6.808;2024-03-29T00:25:11;99223.84;;;9.45;60.50
80502;BME280;76286;51.190;6.808;2024-03-29T00:30:12;99230.19;;;9.39;60.49
80502;BME280;76286;51.190;6.808;2024-03-29T00:35:14;99238.19;;;9.39;60.61
80502;BME280;76286;51.190;6.808;2024-03-29T00:40:19;99239.25;;;9.38;60.39
80502;BME280;76286;51.190;6.808;2024-03-29T00:45:20;99232.00;;;9.33;60.39
80502;BME280;76286;51.190;6.808;2024-03-29T00:50:26;99249.03;;;9.32;60.40
80502;BME280;76286;51.190;6.808;2024-03-29T00:55:27;99256.25;;;9.32;60.36
80502;BME280;76286;51.190;6.808;2024-03-29T01:00:30;99247.72;;;9.30;60.33
80502;BME280;76286;51.190;6.808;2024-03-29T01:05:31;99228.25;;;9.29;60.61
80502;BME280;76286;51.190;6.808;2024-03-29T01:10:32;99215.75;;;9.30;60.26
80502;BME280;76286;51.190;6.808;2024-03-29T01:15:43;99219.72;;;9.27;60.09
80502;BME280;76286;51.190;6.808;2024-03-29T01:20:47;99230.91;;;9.29;60.29
80502;BME280;76286;51.190;6.808;2024-03-29T01:25:48;99266.09;;;9.31;60.64
80502;BME280;76286;51.190;6.808;2024-03-29T01:30:52;99258.91;;;9.32;60.27
80502;BME280;76286;51.190;6.808;2024-03-29T01:35:59;99262.63;;;9.31;60.47
80502;BME280;76286;51.190;6.808;2024-03-29T01:41:00;99237.34;;;9.33;60.20
80502;BME280;76286;51.190;6.808;2024-03-29T01:46:02;99240.81;;;9.34;60.02
80502;BME280;76286;51.190;6.808;2024-03-29T01:51:06;99217.66;;;9.34;60.35
80502;BME280;76286;51.190;6.808;2024-03-29T01:56:10;99205.41;;;9.39;60.28
80502;BME280;76286;51.190;6.808;2024-03-29T02:01:11;99192.09;;;9.39;60.34
80502;BME280;76286;51.190;6.808;2024-03-29T02:06:13;99187.84;;;9.43;60.07
80502;BME280;76286;51.190;6.808;2024-03-29T02:11:14;99171.09;;;9.47;60.30
80502;BME280;76286;51.190;6.808;2024-03-29T02:16:15;99165.53;;;9.49;59.70
80502;BME280;76286;51.190;6.808;2024-03-29T02:21:19;99168.47;;;9.52;60.03
80502;BME280;76286;51.190;6.808;2024-03-29T02:26:20;99168.78;;;9.56;60.01
80502;BME280;76286;51.190;6.808;2024-03-29T02:31:24;99172.00;;;9.58;59.89
80502;BME280;76286;51.190;6.808;2024-03-29T02:36:25;99180.03;;;9.63;59.92
80502;BME280;76286;51.190;6.808;2024-03-29T02:41:27;99180.34;;;9.66;59.76
80502;BME280;76286;51.190;6.808;2024-03-29T02:46:30;99191.53;;;9.68;59.82
80502;BME280;76286;51.190;6.808;2024-03-29T02:51:31;99175.81;;;9.72;59.56
80502;BME280;76286;51.190;6.808;2024-03-29T02:56:32;99190.75;;;9.73;59.99
80502;BME280;76286;51.190;6.808;2024-03-29T03:01:33;99175.28;;;9.70;59.76
80502;BME280;76286;51.190;6.808;2024-03-29T03:06:35;99181.94;;;9.67;59.92
80502;BME280;76286;51.190;6.808;2024-03-29T03:11:39;99189.38;;;9.65;59.80
80502;BME280;76286;51.190;6.808;2024-03-29T03:16:40;99180.34;;;9.66;59.89
80502;BME280;76286;51.190;6.808;2024-03-29T03:21:44;99176.00;;;9.60;60.37
80502;BME280;76286;51.190;6.808;2024-03-29T03:26:48;99157.88;;;9.57;60.01
80502;BME280;76286;51.190;6.808;2024-03-29T03:31:49;99152.50;;;9.52;60.36
80502;BME280;76286;51.190;6.808;2024-03-29T03:36:50;99150.09;;;9.51;60.43
80502;BME280;76286;51.190;6.808;2024-03-29T03:41:54;99150.38;;;9.49;60.20
80502;BME280;76286;51.190;6.808;2024-03-29T03:46:58;99151.69;;;9.47;60.35
80502;BME280;76286;51.190;6.808;2024-03-29T03:52:02;99149.53;;;9.44;60.50
80502;BME280;76286;51.190;6.808;2024-03-29T03:57:04;99162.03;;;9.43;60.54
80502;BME280;76286;51.190;6.808;2024-03-29T04:02:05;99163.66;;;9.44;60.37
80502;BME280;76286;51.190;6.808;2024-03-29T04:07:06;99176.97;;;9.44;60.86
80502;BME280;76286;51.190;6.808;2024-03-29T04:12:07;99171.09;;;9.42;60.36
80502;BME280;76286;51.190;6.808;2024-03-29T04:17:08;99165.78;;;9.42;60.76
80502;BME280;76286;51.190;6.808;2024-03-29T04:22:10;99164.16;;;9.41;60.95
80502;BME280;76286;51.190;6.808;2024-03-29T04:27:16;99157.78;;;9.42;60.73
80502;BME280;76286;51.190;6.808;2024-03-29T04:32:20;99171.63;;;9.44;60.90
80502;BME280;76286;51.190;6.808;2024-03-29T04:37:23;99168.44;;;9.42;60.90
80502;BME280;76286;51.190;6.808;2024-03-29T04:42:28;99163.09;;;9.42;60.75
80502;BME280;76286;51.190;6.808;2024-03-29T04:47:29;99158.28;;;9.39;61.00
80502;BME280;76286;51.190;6.808;2024-03-29T04:52:35;99150.53;;;9.38;60.79
80502;BME280;76286;51.190;6.808;2024-03-29T04:57:42;99148.94;;;9.37;61.19
80502;BME280;76286;51.190;6.808;2024-03-29T05:02:46;99144.91;;;9.34;61.23
80502;BME280;76286;51.190;6.808;2024-03-29T05:08:00;99118.53;;;9.32;61.37
80502;BME280;76286;51.190;6.808;2024-03-29T05:13:02;99126.81;;;9.36;60.93
80502;BME280;76286;51.190;6.808;2024-03-29T05:18:03;99136.88;;;9.29;61.38
80502;BME280;76286;51.190;6.808;2024-03-29T05:23:04;99135.81;;;9.25;61.06
80502;BME280;76286;51.190;6.808;2024-03-29T05:28:09;99131.81;;;9.27;60.85
80502;BME280;76286;51.190;6.808;2024-03-29T05:33:30;99135.53;;;9.26;61.25
80502;BME280;76286;51.190;6.808;2024-03-29T05:38:37;99136.84;;;9.24;61.08
80502;BME280;76286;51.190;6.808;2024-03-29T05:43:41;99137.09;;;9.22;61.62
80502;BME280;76286;51.190;6.808;2024-03-29T05:48:42;99112.84;;;9.19;61.68
80502;BME280;76286;51.190;6.808;2024-03-29T05:53:43;99118.97;;;9.19;61.40
80502;BME280;76286;51.190;6.808;2024-03-29T05:58:56;99106.16;;;9.16;61.56
80502;BME280;76286;51.190;6.808;2024-03-29T06:03:57;99109.63;;;9.17;61.47
80502;BME280;76286;51.190;6.808;2024-03-29T06:09:05;99122.13;;;9.16;61.89
80502;BME280;76286;51.190;6.808;2024-03-29T06:14:08;99108.28;;;9.14;62.11
80502;BME280;76286;51.190;6.808;2024-03-29T06:19:12;99108.81;;;9.16;61.87
80502;BME280;76286;51.190;6.808;2024-03-29T06:24:21;99119.97;;;9.13;61.95
80502;BME280;76286;51.190;6.808;2024-03-29T06:29:25;99114.16;;;9.16;61.69
80502;BME280;76286;51.190;6.808;2024-03-29T06:34:28;99121.31;;;9.16;62.17
80502;BME280;76286;51.190;6.808;2024-03-29T06:39:32;99116.81;;;9.16;62.12
80502;BME280;76286;51.190;6.808;2024-03-29T06:44:34;99122.13;;;9.16;62.08
80502;BME280;76286;51.190;6.808;2024-03-29T06:49:41;99122.69;;;9.18;62.22
80502;BME280;76286;51.190;6.808;2024-03-29T06:54:42;99125.88;;;9.20;62.76
80502;BME280;76286;51.190;6.808;2024-03-29T06:59:43;99129.13;;;9.22;62.07
80502;BME280;76286;51.190;6.808;2024-03-29T07:04:50;99136.84;;;9.24;61.97
80502;BME280;76286;51.190;6.808;2024-03-29T07:09:51;99129.41;;;9.26;62.22
80502;BME280;76286;51.190;6.808;2024-03-29T07:14:52;99138.19;;;9.26;62.55
80502;BME280;76286;51.190;6.808;2024-03-29T07:19:57;99136.88;;;9.29;62.29
80502;BME280;76286;51.190;6.808;2024-03-29T07:24:58;99138.25;;;9.31;62.30
80502;BME280;76286;51.190;6.808;2024-03-29T07:29:59;99159.81;;;9.35;62.25
80502;BME280;76286;51.190;6.808;2024-03-29T07:35:02;99166.81;;;9.41;62.28
80502;BME280;76286;51.190;6.808;2024-03-29T07:40:06;99166.03;;;9.46;62.62
80502;BME280;76286;51.190;6.808;2024-03-29T07:45:08;99175.13;;;9.50;62.01
80502;BME280;76286;51.190;6.808;2024-03-29T07:50:09;99188.75;;;9.53;62.16
80502;BME280;76286;51.190;6.808;2024-03-29T07:55:10;99186.13;;;9.58;62.30
80502;BME280;76286;51.190;6.808;2024-03-29T08:00:11;99182.69;;;9.63;62.22
80502;BME280;76286;51.190;6.808;2024-03-29T08:05:15;99186.44;;;9.67;62.18
80502;BME280;76286;51.190;6.808;2024-03-29T08:10:17;99179.81;;;9.69;61.90
80502;BME280;76286;51.190;6.808;2024-03-29T08:15:18;99169.47;;;9.78;62.47
80502;BME280;76286;51.190;6.808;2024-03-29T08:20:20;99184.69;;;9.82;62.67
80502;BME280;76286;51.190;6.808;2024-03-29T08:25:23;99178.06;;;9.85;62.63
80502;BME280;76286;51.190;6.808;2024-03-29T08:30:30;99174.91;;;9.93;62.96
80502;BME280;76286;51.190;6.808;2024-03-29T08:35:34;99180.03;;;10.05;62.98
80502;BME280;76286;51.190;6.808;2024-03-29T08:40:43;99176.31;;;10.11;62.68
80502;BME280;76286;51.190;6.808;2024-03-29T08:45:46;99184.13;;;10.17;63.08
80502;BME280;76286;51.190;6.808;2024-03-29T08:50:48;99199.91;;;10.24;63.27
80502;BME280;76286;51.190;6.808;2024-03-29T08:55:49;99200.19;;;10.32;62.77
80502;BME280;76286;51.190;6.808;2024-03-29T09:00:53;99219.16;;;10.36;63.35
80502;BME280;76286;51.190;6.808;2024-03-29T09:05:55;99221.09;;;10.45;63.67
80502;BME280;76286;51.190;6.808;2024-03-29T09:10:58;99207.50;;;10.52;63.54
80502;BME280;76286;51.190;6.808;2024-03-29T09:16:01;99205.13;;;10.60;62.64
80502;BME280;76286;51.190;6.808;2024-03-29T09:21:02;99191.03;;;10.75;62.96
80502;BME280;76286;51.190;6.808;2024-03-29T09:26:04;99200.69;;;10.91;62.82
80502;BME280;76286;51.190;6.808;2024-03-29T09:31:05;99204.19;;;11.07;61.75
80502;BME280;76286;51.190;6.808;2024-03-29T09:36:13;99206.88;;;11.22;62.16
80502;BME280;76286;51.190;6.808;2024-03-29T09:41:15;99207.16;;;11.36;62.31
80502;BME280;76286;51.190;6.808;2024-03-29T09:46:17;99222.13;;;11.52;61.79
80502;BME280;76286;51.190;6.808;2024-03-29T09:51:18;99215.47;;;11.64;62.11
80502;BME280;76286;51.190;6.808;2024-03-29T09:56:20;99217.59;;;11.72;62.33
80502;BME280;76286;51.190;6.808;2024-03-29T10:01:22;99221.09;;;11.83;62.18
80502;BME280;76286;51.190;6.808;2024-03-29T10:06:24;99221.59;;;11.95;60.87
80502;BME280;76286;51.190;6.808;2024-03-29T10:11:25;99229.59;;;12.10;61.46
80502;BME280;76286;51.190;6.808;2024-03-29T10:16:29;99235.72;;;12.21;60.78
80502;BME280;76286;51.190;6.808;2024-03-29T10:21:38;99232.78;;;12.32;60.37
80502;BME280;76286;51.190;6.808;2024-03-29T10:26:40;99242.88;;;12.45;61.21
80502;BME280;76286;51.190;6.808;2024-03-29T10:31:42;99250.38;;;12.53;60.50
80502;BME280;76286;51.190;6.808;2024-03-29T10:36:43;99254.59;;;12.64;60.88
80502;BME280;76286;51.190;6.808;2024-03-29T10:41:50;99239.00;;;12.77;60.35
80502;BME280;76286;51.190;6.808;2024-03-29T10:46:54;99238.13;;;12.91;60.03
80502;BME280;76286;51.190;6.808;2024-03-29T10:51:58;99242.09;;;13.09;59.82
80502;BME280;76286;51.190;6.808;2024-03-29T10:57:12;99248.72;;;13.26;59.81
80502;BME280;76286;51.190;6.808;2024-03-29T11:07:56;99227.50;;;13.64;59.55
80502;BME280;76286;51.190;6.808;2024-03-29T11:18:05;99238.22;;;13.97;58.87
80502;BME280;76286;51.190;6.808;2024-03-29T11:23:12;99253.63;;;14.16;58.67
80502;BME280;76286;51.190;6.808;2024-03-29T11:28:22;99258.00;;;14.35;58.82
80502;BME280;76286;51.190;6.808;2024-03-29T11:33:30;99259.16;;;14.53;58.44
80502;BME280;76286;51.190;6.808;2024-03-29T11:38:35;99272.13;;;14.70;58.44
80502;BME280;76286;51.190;6.808;2024-03-29T11:43:39;99254.22;;;14.84;58.53
80502;BME280;76286;51.190;6.808;2024-03-29T11:48:43;99251.84;;;15.01;58.08
80502;BME280;76286;51.190;6.808;2024-03-29T11:53:46;99276.94;;;15.15;57.89
80502;BME280;76286;51.190;6.808;2024-03-29T12:04:09;99306.53;;;15.34;57.90
80502;BME280;76286;51.190;6.808;2024-03-29T12:09:24;99330.38;;;15.40;57.58
80502;BME280;76286;51.190;6.808;2024-03-29T12:14:32;99329.00;;;15.43;57.93
80502;BME280;76286;51.190;6.808;2024-03-29T12:19:37;99344.31;;;15.47;57.71
80502;BME280;76286;51.190;6.808;2024-03-29T12:24:42;99344.00;;;15.49;57.82
80502;BME280;76286;51.190;6.808;2024-03-29T12:29:43;99342.63;;;15.51;57.45
80502;BME280;76286;51.190;6.808;2024-03-29T12:34:44;99349.81;;;15.56;57.45
80502;BME280;76286;51.190;6.808;2024-03-29T12:39:47;99346.88;;;15.57;57.44
80502;BME280;76286;51.190;6.808;2024-03-29T12:44:51;99342.00;;;15.59;57.46
80502;BME280;76286;51.190;6.808;2024-03-29T12:49:58;99342.00;;;15.59;57.45
80502;BME280;76286;51.190;6.808;2024-03-29T12:55:17;99344.06;;;15.62;57.63
80502;BME280;76286;51.190;6.808;2024-03-29T13:00:31;99351.00;;;15.68;57.63
80502;BME280;76286;51.190;6.808;2024-03-29T13:05:35;99329.09;;;15.75;57.67
80502;BME280;76286;51.190;6.808;2024-03-29T13:10:41;99330.63;;;15.81;57.71
80502;BME280;76286;51.190;6.808;2024-03-29T13:15:43;99341.59;;;15.84;57.37
80502;BME280;76286;51.190;6.808;2024-03-29T13:20:47;99345.81;;;15.90;57.70
80502;BME280;76286;51.190;6.808;2024-03-29T13:25:48;99347.47;;;16.05;57.55
80502;BME280;76286;51.190;6.808;2024-03-29T13:30:52;99348.16;;;16.29;57.17
80502;BME280;76286;51.190;6.808;2024-03-29T13:35:57;99365.56;;;16.50;57.03
80502;BME280;76286;51.190;6.808;2024-03-29T13:41:01;99385.28;;;16.65;56.74
80502;BME280;76286;51.190;6.808;2024-03-29T13:46:11;99373.81;;;16.73;56.32
80502;BME280;76286;51.190;6.808;2024-03-29T13:51:13;99360.84;;;16.88;56.37
80502;BME280;76286;51.190;6.808;2024-03-29T13:56:15;99356.75;;;17.18;55.84
80502;BME280;76286;51.190;6.808;2024-03-29T14:01:22;99351.81;;;17.47;55.30
80502;BME280;76286;51.190;6.808;2024-03-29T14:06:42;99334.47;;;17.75;55.17
80502;BME280;76286;51.190;6.808;2024-03-29T14:11:45;99316.72;;;17.97;54.77
80502;BME280;76286;51.190;6.808;2024-03-29T14:16:56;99329.66;;;18.08;54.22
80502;BME280;76286;51.190;6.808;2024-03-29T14:22:11;99333.75;;;18.28;54.05
80502;BME280;76286;51.190;6.808;2024-03-29T14:27:15;99335.22;;;18.34;54.10
80502;BME280;76286;51.190;6.808;2024-03-29T14:37:24;99366.09;;;18.55;53.66
80502;BME280;76286;51.190;6.808;2024-03-29T14:42:28;99350.97;;;18.63;53.69
80502;BME280;76286;51.190;6.808;2024-03-29T14:47:39;99343.25;;;18.70;53.36
80502;BME280;76286;51.190;6.808;2024-03-29T14:52:46;99343.53;;;18.68;53.23
80502;BME280;76286;51.190;6.808;2024-03-29T14:57:55;99353.56;;;18.68;53.12
80502;BME280;76286;51.190;6.808;2024-03-29T15:03:05;99352.09;;;18.62;53.32
80502;BME280;76286;51.190;6.808;2024-03-29T15:08:13;99357.03;;;18.60;53.26
80502;BME280;76286;51.190;6.808;2024-03-29T15:13:20;99353.66;;;18.54;53.39
80502;BME280;76286;51.190;6.808;2024-03-29T15:18:30;99357.28;;;18.49;53.43
80502;BME280;76286;51.190;6.808;2024-03-29T15:23:35;99362.00;;;18.44;53.75
80502;BME280;76286;51.190;6.808;2024-03-29T15:28:42;99370.22;;;18.39;53.83
80502;BME280;76286;51.190;6.808;2024-03-29T15:34:02;99360.47;;;18.29;53.79
80502;BME280;76286;51.190;6.808;2024-03-29T15:39:07;99382.03;;;18.21;53.74
80502;BME280;76286;51.190;6.808;2024-03-29T15:44:14;99395.78;;;18.11;53.95
80502;BME280;76286;51.190;6.808;2024-03-29T15:49:16;99387.91;;;18.01;54.13
80502;BME280;76286;51.190;6.808;2024-03-29T15:54:22;99398.94;;;17.90;54.24
80502;BME280;76286;51.190;6.808;2024-03-29T15:59:23;99391.59;;;17.82;54.23
80502;BME280;76286;51.190;6.808;2024-03-29T16:04:24;99402.78;;;17.76;54.22
80502;BME280;76286;51.190;6.808;2024-03-29T16:09:26;99403.00;;;17.66;54.36
80502;BME280;76286;51.190;6.808;2024-03-29T16:14:29;99386.72;;;17.57;54.57
80502;BME280;76286;51.190;6.808;2024-03-29T16:19:40;99411.69;;;17.49;54.65
80502;BME280;76286;51.190;6.808;2024-03-29T16:24:49;99409.19;;;17.39;55.02
80502;BME280;76286;51.190;6.808;2024-03-29T16:29:53;99418.50;;;17.33;55.04
80502;BME280;76286;51.190;6.808;2024-03-29T16:34:54;99419.19;;;17.25;55.14
80502;BME280;76286;51.190;6.808;2024-03-29T16:39:55;99421.50;;;17.18;55.20
80502;BME280;76286;51.190;6.808;2024-03-29T16:44:56;99427.63;;;17.10;55.26
80502;BME280;76286;51.190;6.808;2024-03-29T16:49:58;99451.44;;;17.03;55.28
80502;BME280;76286;51.190;6.808;2024-03-29T16:55:00;99442.47;;;16.94;55.53
80502;BME280;76286;51.190;6.808;2024-03-29T17:00:10;99426.97;;;16.86;56.03
80502;BME280;76286;51.190;6.808;2024-03-29T17:05:11;99420.38;;;16.78;56.28
80502;BME280;76286;51.190;6.808;2024-03-29T17:10:13;99416.47;;;16.71;56.44
80502;BME280;76286;51.190;6.808;2024-03-29T17:15:18;99408.25;;;16.62;56.65
80502;BME280;76286;51.190;6.808;2024-03-29T17:20:22;99412.72;;;16.53;56.73
80502;BME280;76286;51.190;6.808;2024-03-29T17:25:26;99433.53;;;16.47;56.36
80502;BME280;76286;51.190;6.808;2024-03-29T17:30:29;99436.59;;;16.41;56.96
80502;BME280;76286;51.190;6.808;2024-03-29T17:35:39;99434.97;;;16.40;56.94
80502;BME280;76286;51.190;6.808;2024-03-29T17:40:43;99443.44;;;16.33;56.68
80502;BME280;76286;51.190;6.808;2024-03-29T17:45:52;99458.09;;;16.27;56.61
80502;BME280;76286;51.190;6.808;2024-03-29T17:50:53;99473.03;;;16.20;56.97
80502;BME280;76286;51.190;6.808;2024-03-29T17:55:59;99494.34;;;16.16;57.14
80502;BME280;76286;51.190;6.808;2024-03-29T18:01:03;99483.44;;;16.08;57.05
80502;BME280;76286;51.190;6.808;2024-03-29T18:06:30;99480.56;;;15.99;57.22
80502;BME280;76286;51.190;6.808;2024-03-29T18:11:32;99484.94;;;15.95;57.68
80502;BME280;76286;51.190;6.808;2024-03-29T18:16:33;99486.38;;;15.87;57.99
80502;BME280;76286;51.190;6.808;2024-03-29T18:21:34;99500.41;;;15.84;57.95
80502;BME280;76286;51.190;6.808;2024-03-29T18:26:35;99495.41;;;15.78;58.01
80502;BME280;76286;51.190;6.808;2024-03-29T18:31:39;99495.47;;;15.73;57.97
80502;BME280;76286;51.190;6.808;2024-03-29T18:36:48;99510.09;;;15.67;57.74
80502;BME280;76286;51.190;6.808;2024-03-29T18:41:53;99526.34;;;15.57;58.13
80502;BME280;76286;51.190;6.808;2024-03-29T18:46:54;99530.41;;;15.54;58.27
80502;BME280;76286;51.190;6.808;2024-03-29T18:52:01;99518.06;;;15.48;58.41
80502;BME280;76286;51.190;6.808;2024-03-29T18:57:02;99521.13;;;15.37;58.74
80502;BME280;76286;51.190;6.808;2024-03-29T19:02:06;99521.19;;;15.32;58.77
80502;BME280;76286;51.190;6.808;2024-03-29T19:07:07;99492.50;;;15.22;58.71
80502;BME280;76286;51.190;6.808;2024-03-29T19:12:09;99501.72;;;15.16;58.62
80502;BME280;76286;51.190;6.808;2024-03-29T19:17:10;99499.88;;;15.11;59.33
80502;BME280;76286;51.190;6.808;2024-03-29T19:22:12;99536.25;;;15.04;59.58
80502;BME280;76286;51.190;6.808;2024-03-29T19:27:18;99531.47;;;14.96;59.76
80502;BME280;76286;51.190;6.808;2024-03-29T19:32:23;99572.91;;;14.90;59.80
80502;BME280;76286;51.190;6.808;2024-03-29T19:37:27;99557.13;;;14.83;60.07
80502;BME280;76286;51.190;6.808;2024-03-29T19:42:41;99545.06;;;14.76;60.06
80502;BME280;76286;51.190;6.808;2024-03-29T19:47:46;99540.53;;;14.71;60.03
80502;BME280;76286;51.190;6.808;2024-03-29T19:52:56;99535.19;;;14.66;60.15
80502;BME280;76286;51.190;6.808;2024-03-29T19:58:03;99541.19;;;14.58;60.22
80502;BME280;76286;51.190;6.808;2024-03-29T20:03:04;99557.06;;;14.54;60.29
80502;BME280;76286;51.190;6.808;2024-03-29T20:08:12;99591.47;;;14.47;60.56
80502;BME280;76286;51.190;6.808;2024-03-29T20:13:21;99603.59;;;14.40;60.91
80502;BME280;76286;51.190;6.808;2024-03-29T20:18:22;99599.91;;;14.31;61.16
80502;BME280;76286;51.190;6.808;2024-03-29T20:23:27;99598.78;;;14.27;61.18
80502;BME280;76286;51.190;6.808;2024-03-29T20:28:32;99603.66;;;14.20;61.32
80502;BME280;76286;51.190;6.808;2024-03-29T20:33:36;99598.31;;;14.15;61.26
80502;BME280;76286;51.190;6.808;2024-03-29T20:38:42;99599.41;;;14.09;61.42
80502;BME280;76286;51.190;6.808;2024-03-29T20:43:53;99593.78;;;14.05;61.33
80502;BME280;76286;51.190;6.808;2024-03-29T20:48:57;99590.34;;;14.00;61.33
80502;BME280;76286;51.190;6.808;2024-03-29T20:54:40;99590.59;;;13.93;61.73
80502;BME280;76286;51.190;6.808;2024-03-29T20:59:56;99581.78;;;13.87;61.44
80502;BME280;76286;51.190;6.808;2024-03-29T21:05:30;99585.31;;;13.83;61.76
80502;BME280;76286;51.190;6.808;2024-03-29T21:10:40;99574.59;;;13.78;61.82
80502;BME280;76286;51.190;6.808;2024-03-29T21:15:45;99560.09;;;13.74;61.89
80502;BME280;76286;51.190;6.808;2024-03-29T21:21:12;99575.66;;;13.67;62.17
80502;BME280;76286;51.190;6.808;2024-03-29T21:26:41;99602.78;;;13.65;61.89
80502;BME280;76286;51.190;6.808;2024-03-29T21:32:07;99614.06;;;13.57;62.19
80502;BME280;76286;51.190;6.808;2024-03-29T21:37:21;99654.03;;;13.59;61.98
80502;BME280;76286;51.190;6.808;2024-03-29T21:42:28;99640.34;;;13.55;62.67
80502;BME280;76286;51.190;6.808;2024-03-29T21:47:42;99652.69;;;13.46;62.74
80502;BME280;76286;51.190;6.808;2024-03-29T21:52:49;99669.84;;;13.45;62.83
80502;BME280;76286;51.190;6.808;2024-03-29T21:57:50;99687.56;;;13.41;62.57
80502;BME280;76286;51.190;6.808;2024-03-29T22:02:57;99693.97;;;13.40;62.12
80502;BME280;76286;51.190;6.808;2024-03-29T22:07:58;99689.72;;;13.34;62.90
80502;BME280;76286;51.190;6.808;2024-03-29T22:13:03;99698.56;;;13.29;62.92
80502;BME280;76286;51.190;6.808;2024-03-29T22:18:07;99698.81;;;13.28;62.72
80502;BME280;76286;51.190;6.808;2024-03-29T22:23:17;99702.00;;;13.25;62.35
80502;BME280;76286;51.190;6.808;2024-03-29T22:33:47;99688.63;;;13.15;62.26
80502;BME280;76286;51.190;6.808;2024-03-29T22:38:54;99717.28;;;13.14;62.47
80502;BME280;76286;51.190;6.808;2024-03-29T22:43:55;99735.22;;;13.09;62.55
80502;BME280;76286;51.190;6.808;2024-03-29T22:48:59;99719.91;;;13.04;62.34
80502;BME280;76286;51.190;6.808;2024-03-29T22:54:05;99720.44;;;13.01;62.81
80502;BME280;76286;51.190;6.808;2024-03-29T22:59:06;99694.16;;;12.98;62.67
80502;BME280;76286;51.190;6.808;2024-03-29T23:04:10;99707.56;;;12.93;62.63
80502;BME280;76286;51.190;6.808;2024-03-29T23:09:15;99698.72;;;12.88;62.58
80502;BME280;76286;51.190;6.808;2024-03-29T23:14:19;99709.69;;;12.86;63.01
80502;BME280;76286;51.190;6.808;2024-03-29T23:19:23;99692.28;;;12.79;63.39
80502;BME280;76286;51.190;6.808;2024-03-29T23:24:34;99691.97;;;12.75;63.55
80502;BME280;76286;51.190;6.808;2024-03-29T23:29:36;99684.72;;;12.71;62.93
80502;BME280;76286;51.190;6.808;2024-03-29T23:34:58;99663.00;;;12.67;63.16
80502;BME280;76286;51.190;6.808;2024-03-29T23:40:00;99654.97;;;12.62;63.11
80502;BME280;76286;51.190;6.808;2024-03-29T23:45:03;99657.41;;;12.63;62.75
80502;BME280;76286;51.190;6.808;2024-03-29T23:50:10;99660.06;;;12.58;63.30
80502;BME280;76286;51.190;6.808;2024-03-29T23:55:19;99656.31;;;12.54;63.33
